sensor_id;sensor_type;location;lat;lon;timestamp;pressure;altitude;pressure_sealevel;temperature;humidity
80682;BME280;70045;40.200;44.582;2023-07-16T00:01:30;86166.22;;;20.91;41.12
80682;BME280;70045;40.200;44.582;2023-07-16T00:03:58;86166.94;;;20.92;41.70
80682;BME280;70045;40.200;44.582;2023-07-16T00:06:23;86161.66;;;20.92;41.11
80682;BME280;70045;40.200;44.582;2023-07-16T00:08:49;86158.56;;;20.93;41.07
80682;BME280;70045;40.200;44.582;2023-07-16T00:11:14;86149.00;;;20.90;41.35
80682;BME280;70045;40.200;44.582;2023-07-16T00:13:40;86150.63;;;20.87;41.24
80682;BME280;70045;40.200;44.582;2023-07-16T00:16:08;86159.47;;;20.84;41.64
80682;BME280;70045;40.200;44.582;2023-07-16T00:18:33;86157.06;;;20.86;41.11
80682;BME280;70045;40.200;44.582;2023-07-16T00:20:58;86170.25;;;20.86;41.72
80682;BME280;70045;40.200;44.582;2023-07-16T00:23:24;86170.06;;;20.90;41.28
80682;BME280;70045;40.200;44.582;2023-07-16T00:25:49;86167.38;;;20.84;41.21
80682;BME280;70045;40.200;44.582;2023-07-16T00:28:17;86163.03;;;20.81;41.52
80682;BME280;70045;40.200;44.582;2023-07-16T00:30:43;86161.38;;;20.84;41.16
80682;BME280;70045;40.200;44.582;2023-07-16T00:33:08;86164.47;;;20.82;41.24
80682;BME280;70045;40.200;44.582;2023-07-16T00:35:33;86161.59;;;20.80;41.24
80682;BME280;70045;40.200;44.582;2023-07-16T00:37:59;86164.22;;;20.80;41.21
80682;BME280;70045;40.200;44.582;2023-07-16T00:40:27;86163.72;;;20.76;41.59
80682;BME280;70045;40.200;44.582;2023-07-16T00:42:52;86160.56;;;20.72;41.41
80682;BME280;70045;40.200;44.582;2023-07-16T00:45:18;86152.81;;;20.63;41.23
80682;BME280;70045;40.200;44.582;2023-07-16T00:47:44;86149.00;;;20.64;41.60
80682;BME280;70045;40.200;44.582;2023-07-16T00:50:10;86154.00;;;20.62;42.00
80682;BME280;70045;40.200;44.582;2023-07-16T00:52:39;86144.66;;;20.61;41.69
80682;BME280;70045;40.200;44.582;2023-07-16T00:55:06;86158.28;;;20.59;42.09
80682;BME280;70045;40.200;44.582;2023-07-16T00:57:32;86156.09;;;20.58;41.85
80682;BME280;70045;40.200;44.582;2023-07-16T00:59:58;86151.75;;;20.55;42.35
80682;BME280;70045;40.200;44.582;2023-07-16T01:02:23;86158.22;;;20.54;42.19
80682;BME280;70045;40.200;44.582;2023-07-16T01:04:52;86153.16;;;20.50;42.78
80682;BME280;70045;40.200;44.582;2023-07-16T01:07:18;86156.53;;;20.50;43.99
80682;BME280;70045;40.200;44.582;2023-07-16T01:09:46;86160.31;;;20.49;43.38
80682;BME280;70045;40.200;44.582;2023-07-16T01:12:12;86164.41;;;20.50;44.65
80682;BME280;70045;40.200;44.582;2023-07-16T01:14:39;86156.94;;;20.43;44.46
80682;BME280;70045;40.200;44.582;2023-07-16T01:17:08;86156.41;;;20.39;45.50
80682;BME280;70045;40.200;44.582;2023-07-16T01:19:34;86157.31;;;20.36;45.45
80682;BME280;70045;40.200;44.582;2023-07-16T01:22:27;86158.53;;;20.35;45.97
80682;BME280;70045;40.200;44.582;2023-07-16T01:25:09;86159.69;;;20.34;45.85
80682;BME280;70045;40.200;44.582;2023-07-16T01:30:47;86167.84;;;20.36;44.43
80682;BME280;70045;40.200;44.582;2023-07-16T01:33:16;86161.25;;;20.46;44.47
80682;BME280;70045;40.200;44.582;2023-07-16T01:35:43;86162.03;;;20.53;44.22
80682;BME280;70045;40.200;44.582;2023-07-16T01:38:11;86162.09;;;20.58;44.88
80682;BME280;70045;40.200;44.582;2023-07-16T01:40:37;86167.16;;;20.62;44.19
80682;BME280;70045;40.200;44.582;2023-07-16T01:43:02;86163.53;;;20.59;44.57
80682;BME280;70045;40.200;44.582;2023-07-16T01:45:28;86168.81;;;20.59;44.35
80682;BME280;70045;40.200;44.582;2023-07-16T01:48:11;86170.59;;;20.68;44.56
80682;BME280;70045;40.200;44.582;2023-07-16T01:50:41;86170.59;;;20.68;44.85
80682;BME280;70045;40.200;44.582;2023-07-16T01:53:07;86167.53;;;20.75;43.99
80682;BME280;70045;40.200;44.582;2023-07-16T01:55:32;86166.06;;;20.74;44.12
80682;BME280;70045;40.200;44.582;2023-07-16T01:57:57;86167.06;;;20.77;43.80
80682;BME280;70045;40.200;44.582;2023-07-16T02:00:23;86170.22;;;20.81;43.84
80682;BME280;70045;40.200;44.582;2023-07-16T02:02:51;86176.75;;;20.91;43.79
80682;BME280;70045;40.200;44.582;2023-07-16T02:05:17;86173.66;;;20.93;42.80
80682;BME280;70045;40.200;44.582;2023-07-16T02:07:43;86182.34;;;20.99;42.68
80682;BME280;70045;40.200;44.582;2023-07-16T02:10:08;86183.06;;;20.99;42.31
80682;BME280;70045;40.200;44.582;2023-07-16T02:12:34;86179.97;;;21.01;41.85
80682;BME280;70045;40.200;44.582;2023-07-16T02:15:02;86182.34;;;20.99;41.84
80682;BME280;70045;40.200;44.582;2023-07-16T02:17:27;86187.34;;;20.97;41.52
80682;BME280;70045;40.200;44.582;2023-07-16T02:19:53;86188.75;;;20.92;41.55
80682;BME280;70045;40.200;44.582;2023-07-16T02:22:18;86189.97;;;20.97;41.49
80682;BME280;70045;40.200;44.582;2023-07-16T02:24:44;86189.53;;;20.98;41.50
80682;BME280;70045;40.200;44.582;2023-07-16T02:27:12;86182.34;;;20.99;41.48
80682;BME280;70045;40.200;44.582;2023-07-16T02:29:37;86188.63;;;21.07;41.32
80682;BME280;70045;40.200;44.582;2023-07-16T02:32:03;86198.03;;;21.14;41.23
80682;BME280;70045;40.200;44.582;2023-07-16T02:34:28;86192.50;;;21.12;41.13
80682;BME280;70045;40.200;44.582;2023-07-16T02:36:54;86198.75;;;21.14;41.08
80682;BME280;70045;40.200;44.582;2023-07-16T02:39:22;86193.56;;;21.25;40.74
80682;BME280;70045;40.200;44.582;2023-07-16T02:41:47;86199.34;;;21.30;40.81
80682;BME280;70045;40.200;44.582;2023-07-16T02:44:13;86198.41;;;21.33;40.70
80682;BME280;70045;40.200;44.582;2023-07-16T02:46:38;86200.16;;;21.41;40.46
80682;BME280;70045;40.200;44.582;2023-07-16T02:49:03;86187.44;;;21.40;40.63
80682;BME280;70045;40.200;44.582;2023-07-16T02:51:31;86201.13;;;21.44;40.32
80682;BME280;70045;40.200;44.582;2023-07-16T02:53:57;86190.06;;;21.40;40.61
80682;BME280;70045;40.200;44.582;2023-07-16T02:56:22;86197.97;;;21.40;40.37
80682;BME280;70045;40.200;44.582;2023-07-16T02:58:48;86193.38;;;21.35;40.37
80682;BME280;70045;40.200;44.582;2023-07-16T03:01:13;86189.81;;;21.38;40.49
80682;BME280;70045;40.200;44.582;2023-07-16T03:03:42;86193.63;;;21.37;40.49
80682;BME280;70045;40.200;44.582;2023-07-16T03:06:07;86197.69;;;21.32;40.55
80682;BME280;70045;40.200;44.582;2023-07-16T03:08:34;86198.97;;;21.42;40.30
80682;BME280;70045;40.200;44.582;2023-07-16T03:10:59;86194.66;;;21.45;40.53
80682;BME280;70045;40.200;44.582;2023-07-16T03:13:24;86193.75;;;21.48;40.26
80682;BME280;70045;40.200;44.582;2023-07-16T03:15:52;86195.69;;;21.48;40.20
80682;BME280;70045;40.200;44.582;2023-07-16T03:18:18;86194.00;;;21.50;40.30
80682;BME280;70045;40.200;44.582;2023-07-16T03:20:44;86196.97;;;21.63;40.21
80682;BME280;70045;40.200;44.582;2023-07-16T03:23:10;86187.16;;;21.70;39.84
80682;BME280;70045;40.200;44.582;2023-07-16T03:25:35;86187.69;;;21.74;39.97
80682;BME280;70045;40.200;44.582;2023-07-16T03:28:03;86195.13;;;21.75;39.65
80682;BME280;70045;40.200;44.582;2023-07-16T03:30:30;86180.16;;;21.61;39.71
80682;BME280;70045;40.200;44.582;2023-07-16T03:32:56;86197.78;;;21.81;39.53
80682;BME280;70045;40.200;44.582;2023-07-16T03:35:21;86193.69;;;21.80;39.64
80682;BME280;70045;40.200;44.582;2023-07-16T03:37:47;86196.16;;;21.89;39.60
80682;BME280;70045;40.200;44.582;2023-07-16T03:40:17;86184.69;;;21.98;39.67
80682;BME280;70045;40.200;44.582;2023-07-16T03:42:43;86186.84;;;21.99;39.14
80682;BME280;70045;40.200;44.582;2023-07-16T03:45:10;86197.59;;;21.90;39.45
80682;BME280;70045;40.200;44.582;2023-07-16T03:47:36;86193.06;;;21.96;39.66
80682;BME280;70045;40.200;44.582;2023-07-16T03:50:01;86188.78;;;22.05;39.14
80682;BME280;70045;40.200;44.582;2023-07-16T03:52:29;86185.66;;;22.06;39.27
80682;BME280;70045;40.200;44.582;2023-07-16T03:54:55;86183.53;;;22.16;39.01
80682;BME280;70045;40.200;44.582;2023-07-16T03:57:20;86194.69;;;22.31;38.83
80682;BME280;70045;40.200;44.582;2023-07-16T03:59:46;86200.69;;;22.37;38.68
80682;BME280;70045;40.200;44.582;2023-07-16T04:02:11;86197.88;;;22.52;38.69
80682;BME280;70045;40.200;44.582;2023-07-16T04:04:39;86207.75;;;22.63;38.55
80682;BME280;70045;40.200;44.582;2023-07-16T04:07:05;86202.00;;;22.70;38.14
80682;BME280;70045;40.200;44.582;2023-07-16T04:09:30;86214.03;;;22.83;38.43
80682;BME280;70045;40.200;44.582;2023-07-16T04:11:56;86217.19;;;22.98;37.82
80682;BME280;70045;40.200;44.582;2023-07-16T04:14:21;86213.34;;;23.05;38.02
80682;BME280;70045;40.200;44.582;2023-07-16T04:16:49;86221.81;;;23.20;37.61
80682;BME280;70045;40.200;44.582;2023-07-16T04:19:15;86217.25;;;23.26;37.09
80682;BME280;70045;40.200;44.582;2023-07-16T04:21:40;86213.16;;;23.31;37.46
80682;BME280;70045;40.200;44.582;2023-07-16T04:24:06;86212.19;;;23.34;37.28
80682;BME280;70045;40.200;44.582;2023-07-16T04:26:31;86224.47;;;23.37;36.85
80682;BME280;70045;40.200;44.582;2023-07-16T04:28:59;86224.94;;;23.36;37.39
80682;BME280;70045;40.200;44.582;2023-07-16T04:31:25;86226.63;;;23.33;37.02
80682;BME280;70045;40.200;44.582;2023-07-16T04:33:50;86230.25;;;23.36;37.15
80682;BME280;70045;40.200;44.582;2023-07-16T04:36:16;86226.16;;;23.40;36.81
80682;BME280;70045;40.200;44.582;2023-07-16T04:38:41;86226.16;;;23.40;37.20
80682;BME280;70045;40.200;44.582;2023-07-16T04:41:09;86222.78;;;23.45;37.01
80682;BME280;70045;40.200;44.582;2023-07-16T04:43:35;86216.78;;;23.50;36.80
80682;BME280;70045;40.200;44.582;2023-07-16T04:46:00;86217.97;;;23.49;36.62
80682;BME280;70045;40.200;44.582;2023-07-16T04:48:26;86216.03;;;23.56;36.88
80682;BME280;70045;40.200;44.582;2023-07-16T04:50:52;86217.97;;;23.61;36.75
80682;BME280;70045;40.200;44.582;2023-07-16T04:53:21;86213.16;;;23.65;36.12
80682;BME280;70045;40.200;44.582;2023-07-16T04:55:47;86216.53;;;23.48;36.52
80682;BME280;70045;40.200;44.582;2023-07-16T04:58:12;86218.69;;;23.44;36.80
80682;BME280;70045;40.200;44.582;2023-07-16T05:00:38;86224.47;;;23.54;36.59
80682;BME280;70045;40.200;44.582;2023-07-16T05:03:03;86221.31;;;23.56;36.38
80682;BME280;70045;40.200;44.582;2023-07-16T05:05:31;86220.13;;;23.57;36.03
80682;BME280;70045;40.200;44.582;2023-07-16T05:07:57;86219.41;;;23.62;36.28
80682;BME280;70045;40.200;44.582;2023-07-16T05:10:22;86225.44;;;23.68;35.93
80682;BME280;70045;40.200;44.582;2023-07-16T05:12:48;86216.03;;;23.67;36.37
80682;BME280;70045;40.200;44.582;2023-07-16T05:15:13;86218.19;;;23.74;36.17
80682;BME280;70045;40.200;44.582;2023-07-16T05:17:41;86217.72;;;23.76;35.93
80682;BME280;70045;40.200;44.582;2023-07-16T05:20:07;86211.94;;;23.88;35.79
80682;BME280;70045;40.200;44.582;2023-07-16T05:22:33;86222.03;;;23.90;35.83
80682;BME280;70045;40.200;44.582;2023-07-16T05:24:58;86221.78;;;23.94;36.14
80682;BME280;70045;40.200;44.582;2023-07-16T05:27:24;86213.84;;;24.05;35.23
80682;BME280;70045;40.200;44.582;2023-07-16T05:29:52;86213.31;;;24.18;35.06
80682;BME280;70045;40.200;44.582;2023-07-16T05:32:17;86216.66;;;24.30;35.20
80682;BME280;70045;40.200;44.582;2023-07-16T05:34:43;86210.16;;;24.31;35.00
80682;BME280;70045;40.200;44.582;2023-07-16T05:37:08;86212.78;;;24.36;35.03
80682;BME280;70045;40.200;44.582;2023-07-16T05:39:34;86209.69;;;24.27;35.17
80682;BME280;70045;40.200;44.582;2023-07-16T05:42:02;86213.31;;;24.29;35.27
80682;BME280;70045;40.200;44.582;2023-07-16T05:44:28;86204.66;;;24.29;34.77
80682;BME280;70045;40.200;44.582;2023-07-16T05:46:54;86212.34;;;24.32;35.08
80682;BME280;70045;40.200;44.582;2023-07-16T05:49:19;86216.63;;;24.41;35.07
80682;BME280;70045;40.200;44.582;2023-07-16T05:51:45;86213.03;;;24.33;35.15
80682;BME280;70045;40.200;44.582;2023-07-16T05:54:13;86208.00;;;24.29;34.82
80682;BME280;70045;40.200;44.582;2023-07-16T05:56:38;86211.13;;;24.28;34.87
80682;BME280;70045;40.200;44.582;2023-07-16T05:59:03;86201.50;;;24.24;34.94
80682;BME280;70045;40.200;44.582;2023-07-16T06:01:29;86201.25;;;24.28;34.76
80682;BME280;70045;40.200;44.582;2023-07-16T06:03:54;86208.44;;;24.44;34.90
80682;BME280;70045;40.200;44.582;2023-07-16T06:06:22;86202.13;;;24.48;34.25
80682;BME280;70045;40.200;44.582;2023-07-16T06:08:48;86198.31;;;24.43;34.58
80682;BME280;70045;40.200;44.582;2023-07-16T06:11:13;86202.16;;;24.42;34.75
80682;BME280;70045;40.200;44.582;2023-07-16T06:13:39;86209.16;;;24.45;34.70
80682;BME280;70045;40.200;44.582;2023-07-16T06:16:04;86197.81;;;24.50;34.04
80682;BME280;70045;40.200;44.582;2023-07-16T06:18:33;86196.59;;;24.51;34.59
80682;BME280;70045;40.200;44.582;2023-07-16T06:20:58;86195.88;;;24.56;34.47
80682;BME280;70045;40.200;44.582;2023-07-16T06:23:24;86181.41;;;24.57;34.22
80682;BME280;70045;40.200;44.582;2023-07-16T06:25:54;86199.88;;;24.80;34.00
80682;BME280;70045;40.200;44.582;2023-07-16T06:28:19;86196.41;;;24.96;33.67
80682;BME280;70045;40.200;44.582;2023-07-16T06:30:51;86195.81;;;25.15;32.83
80682;BME280;70045;40.200;44.582;2023-07-16T06:33:17;86197.44;;;25.29;33.58
80682;BME280;70045;40.200;44.582;2023-07-16T06:35:47;86196.63;;;25.40;32.61
80682;BME280;70045;40.200;44.582;2023-07-16T06:38:13;86181.91;;;25.39;32.87
80682;BME280;70045;40.200;44.582;2023-07-16T06:40:39;86193.06;;;25.62;32.88
80682;BME280;70045;40.200;44.582;2023-07-16T06:43:07;86186.63;;;25.82;32.13
80682;BME280;70045;40.200;44.582;2023-07-16T06:45:32;86189.69;;;25.92;32.35
80682;BME280;70045;40.200;44.582;2023-07-16T06:47:58;86183.59;;;26.03;32.44
80682;BME280;70045;40.200;44.582;2023-07-16T06:50:23;86189.81;;;26.05;32.10
80682;BME280;70045;40.200;44.582;2023-07-16T06:52:48;86196.25;;;26.16;31.93
80682;BME280;70045;40.200;44.582;2023-07-16T06:55:17;86195.25;;;26.19;31.21
80682;BME280;70045;40.200;44.582;2023-07-16T06:57:42;86188.59;;;26.31;31.69
80682;BME280;70045;40.200;44.582;2023-07-16T07:00:08;86197.38;;;26.45;31.13
80682;BME280;70045;40.200;44.582;2023-07-16T07:02:33;86186.75;;;26.45;31.09
80682;BME280;70045;40.200;44.582;2023-07-16T07:04:59;86185.69;;;26.54;31.42
80682;BME280;70045;40.200;44.582;2023-07-16T07:07:27;86184.03;;;26.75;30.89
80682;BME280;70045;40.200;44.582;2023-07-16T07:09:52;86193.31;;;26.88;31.24
80682;BME280;70045;40.200;44.582;2023-07-16T07:12:17;86179.84;;;27.18;29.92
80682;BME280;70045;40.200;44.582;2023-07-16T07:14:43;86182.41;;;27.42;30.36
80682;BME280;70045;40.200;44.582;2023-07-16T07:17:08;86184.56;;;27.76;29.92
80682;BME280;70045;40.200;44.582;2023-07-16T07:19:36;86184.25;;;27.80;29.36
80682;BME280;70045;40.200;44.582;2023-07-16T07:22:02;86190.28;;;27.67;30.30
80682;BME280;70045;40.200;44.582;2023-07-16T07:24:27;86176.66;;;27.71;29.93
80682;BME280;70045;40.200;44.582;2023-07-16T07:26:52;86184.38;;;27.88;29.51
80682;BME280;70045;40.200;44.582;2023-07-16T07:29:18;86169.31;;;27.90;29.40
80682;BME280;70045;40.200;44.582;2023-07-16T07:31:46;86176.34;;;28.20;29.00
80682;BME280;70045;40.200;44.582;2023-07-16T07:34:11;86180.75;;;28.31;29.15
80682;BME280;70045;40.200;44.582;2023-07-16T07:36:37;86178.19;;;28.25;29.08
80682;BME280;70045;40.200;44.582;2023-07-16T07:39:02;86178.09;;;28.31;29.13
80682;BME280;70045;40.200;44.582;2023-07-16T07:41:28;86179.94;;;28.36;28.42
80682;BME280;70045;40.200;44.582;2023-07-16T07:43:56;86179.63;;;28.40;27.99
80682;BME280;70045;40.200;44.582;2023-07-16T07:46:21;86170.81;;;28.31;28.14
80682;BME280;70045;40.200;44.582;2023-07-16T07:48:46;86172.66;;;28.50;28.94
80682;BME280;70045;40.200;44.582;2023-07-16T07:51:12;86162.72;;;28.64;28.43
80682;BME280;70045;40.200;44.582;2023-07-16T07:53:38;86167.53;;;28.52;28.27
80682;BME280;70045;40.200;44.582;2023-07-16T07:56:07;86167.66;;;28.60;27.90
80682;BME280;70045;40.200;44.582;2023-07-16T07:58:33;86165.69;;;28.73;28.86
80682;BME280;70045;40.200;44.582;2023-07-16T08:01:04;86158.78;;;28.91;27.35
80682;BME280;70045;40.200;44.582;2023-07-16T08:03:30;86157.59;;;29.14;28.38
80682;BME280;70045;40.200;44.582;2023-07-16T08:05:55;86150.81;;;29.26;27.51
80682;BME280;70045;40.200;44.582;2023-07-16T08:08:23;86151.59;;;29.34;27.71
80682;BME280;70045;40.200;44.582;2023-07-16T08:10:49;86159.66;;;29.07;28.12
80682;BME280;70045;40.200;44.582;2023-07-16T08:13:14;86158.47;;;28.95;28.24
80682;BME280;70045;40.200;44.582;2023-07-16T08:15:40;86155.75;;;29.08;27.58
80682;BME280;70045;40.200;44.582;2023-07-16T08:18:05;86139.44;;;29.12;27.59
80682;BME280;70045;40.200;44.582;2023-07-16T08:20:36;86146.19;;;28.79;26.61
80682;BME280;70045;40.200;44.582;2023-07-16T08:23:01;86136.47;;;28.68;27.58
80682;BME280;70045;40.200;44.582;2023-07-16T08:25:27;86133.34;;;28.90;27.57
80682;BME280;70045;40.200;44.582;2023-07-16T08:27:52;86138.25;;;29.00;27.33
80682;BME280;70045;40.200;44.582;2023-07-16T08:30:17;86126.16;;;28.85;27.94
80682;BME280;70045;40.200;44.582;2023-07-16T08:32:45;86135.38;;;28.98;27.39
80682;BME280;70045;40.200;44.582;2023-07-16T08:35:11;86130.13;;;28.92;27.33
80682;BME280;70045;40.200;44.582;2023-07-16T08:37:36;86134.75;;;28.91;26.73
80682;BME280;70045;40.200;44.582;2023-07-16T08:40:02;86133.09;;;29.02;26.98
80682;BME280;70045;40.200;44.582;2023-07-16T08:42:27;86128.03;;;29.11;26.92
80682;BME280;70045;40.200;44.582;2023-07-16T08:44:56;86118.41;;;29.08;26.82
80682;BME280;70045;40.200;44.582;2023-07-16T08:47:22;86108.28;;;29.28;26.88
80682;BME280;70045;40.200;44.582;2023-07-16T08:49:54;86114.75;;;29.54;26.10
80682;BME280;70045;40.200;44.582;2023-07-16T08:52:20;86110.38;;;29.64;25.95
80682;BME280;70045;40.200;44.582;2023-07-16T08:54:46;86100.91;;;29.63;26.74
80682;BME280;70045;40.200;44.582;2023-07-16T08:57:14;86095.75;;;29.65;25.40
80682;BME280;70045;40.200;44.582;2023-07-16T08:59:40;86097.25;;;29.10;25.72
80682;BME280;70045;40.200;44.582;2023-07-16T09:02:06;86101.97;;;29.18;25.72
80682;BME280;70045;40.200;44.582;2023-07-16T09:04:32;86097.69;;;29.36;25.79
80682;BME280;70045;40.200;44.582;2023-07-16T09:06:58;86096.75;;;29.54;25.81
80682;BME280;70045;40.200;44.582;2023-07-16T09:09:26;86094.16;;;29.62;25.43
80682;BME280;70045;40.200;44.582;2023-07-16T09:11:51;86088.88;;;29.48;25.10
80682;BME280;70045;40.200;44.582;2023-07-16T09:14:20;86083.06;;;29.79;24.78
80682;BME280;70045;40.200;44.582;2023-07-16T09:16:50;86093.34;;;30.25;24.41
80682;BME280;70045;40.200;44.582;2023-07-16T09:19:15;86082.44;;;30.51;24.78
80682;BME280;70045;40.200;44.582;2023-07-16T09:21:48;86076.41;;;31.10;23.52
80682;BME280;70045;40.200;44.582;2023-07-16T09:24:13;86073.81;;;31.64;23.68
80682;BME280;70045;40.200;44.582;2023-07-16T09:26:46;86064.88;;;32.16;22.58
80682;BME280;70045;40.200;44.582;2023-07-16T09:29:12;86066.91;;;32.63;23.41
80682;BME280;70045;40.200;44.582;2023-07-16T09:31:37;86077.09;;;33.13;22.48
80682;BME280;70045;40.200;44.582;2023-07-16T09:34:09;86070.66;;;34.00;20.79
80682;BME280;70045;40.200;44.582;2023-07-16T09:36:34;86072.53;;;34.49;20.90
80682;BME280;70045;40.200;44.582;2023-07-16T09:39:00;86064.00;;;34.43;20.34
80682;BME280;70045;40.200;44.582;2023-07-16T09:41:27;86067.72;;;35.00;20.10
80682;BME280;70045;40.200;44.582;2023-07-16T09:43:53;86058.88;;;35.35;20.27
80682;BME280;70045;40.200;44.582;2023-07-16T09:46:22;86050.03;;;35.89;18.47
80682;BME280;70045;40.200;44.582;2023-07-16T09:48:47;86049.53;;;36.10;18.53
80682;BME280;70045;40.200;44.582;2023-07-16T09:51:13;86048.00;;;36.26;18.88
80682;BME280;70045;40.200;44.582;2023-07-16T09:53:42;86048.75;;;36.46;18.01
80682;BME280;70045;40.200;44.582;2023-07-16T09:56:12;86041.94;;;36.65;18.23
80682;BME280;70045;40.200;44.582;2023-07-16T09:58:41;86037.09;;;36.92;16.86
80682;BME280;70045;40.200;44.582;2023-07-16T10:01:07;86028.84;;;37.20;16.55
80682;BME280;70045;40.200;44.582;2023-07-16T10:03:33;86027.09;;;37.44;18.13
80682;BME280;70045;40.200;44.582;2023-07-16T10:06:08;86030.63;;;37.97;15.84
80682;BME280;70045;40.200;44.582;2023-07-16T10:08:34;86026.38;;;38.47;17.25
80682;BME280;70045;40.200;44.582;2023-07-16T10:11:02;86026.00;;;37.78;16.01
80682;BME280;70045;40.200;44.582;2023-07-16T10:13:27;86028.72;;;36.88;16.67
80682;BME280;70045;40.200;44.582;2023-07-16T10:15:57;86024.75;;;36.70;17.03
80682;BME280;70045;40.200;44.582;2023-07-16T10:18:30;86016.16;;;37.32;15.79
80682;BME280;70045;40.200;44.582;2023-07-16T10:21:08;86014.75;;;37.11;16.24
80682;BME280;70045;40.200;44.582;2023-07-16T10:23:43;86008.84;;;37.54;16.13
80682;BME280;70045;40.200;44.582;2023-07-16T10:26:12;86009.16;;;37.90;15.65
80682;BME280;70045;40.200;44.582;2023-07-16T10:28:38;86009.69;;;38.51;16.28
80682;BME280;70045;40.200;44.582;2023-07-16T10:31:03;86004.97;;;38.73;15.16
80682;BME280;70045;40.200;44.582;2023-07-16T10:33:31;85997.09;;;38.12;14.92
80682;BME280;70045;40.200;44.582;2023-07-16T10:35:57;85995.81;;;38.03;15.26
80682;BME280;70045;40.200;44.582;2023-07-16T10:38:23;86003.19;;;37.50;16.18
80682;BME280;70045;40.200;44.582;2023-07-16T10:40:49;85999.91;;;37.83;15.74
80682;BME280;70045;40.200;44.582;2023-07-16T10:43:15;86001.31;;;38.68;15.81
80682;BME280;70045;40.200;44.582;2023-07-16T10:45:43;85994.34;;;39.32;14.73
80682;BME280;70045;40.200;44.582;2023-07-16T10:48:08;86009.09;;;39.29;14.28
80682;BME280;70045;40.200;44.582;2023-07-16T10:50:34;85999.44;;;39.38;14.75
80682;BME280;70045;40.200;44.582;2023-07-16T10:53:00;86002.63;;;39.46;14.81
80682;BME280;70045;40.200;44.582;2023-07-16T10:55:27;85989.97;;;39.15;14.94
80682;BME280;70045;40.200;44.582;2023-07-16T10:57:56;85994.00;;;38.92;14.73
80682;BME280;70045;40.200;44.582;2023-07-16T11:00:22;85992.56;;;38.91;15.10
80682;BME280;70045;40.200;44.582;2023-07-16T11:02:50;85976.22;;;38.68;14.91
80682;BME280;70045;40.200;44.582;2023-07-16T11:05:18;85984.97;;;39.11;14.62
80682;BME280;70045;40.200;44.582;2023-07-16T11:07:47;85988.72;;;37.98;15.42
80682;BME280;70045;40.200;44.582;2023-07-16T11:10:16;85987.50;;;38.64;15.31
80682;BME280;70045;40.200;44.582;2023-07-16T11:12:42;85984.03;;;38.73;14.56
80682;BME280;70045;40.200;44.582;2023-07-16T11:15:08;85975.22;;;39.30;14.64
80682;BME280;70045;40.200;44.582;2023-07-16T11:17:36;85972.41;;;39.28;14.34
80682;BME280;70045;40.200;44.582;2023-07-16T11:20:02;85973.91;;;39.88;14.05
80682;BME280;70045;40.200;44.582;2023-07-16T11:22:30;85974.16;;;40.04;13.95
80682;BME280;70045;40.200;44.582;2023-07-16T11:24:56;85975.25;;;40.36;13.50
80682;BME280;70045;40.200;44.582;2023-07-16T11:27:30;85974.00;;;40.37;13.17
80682;BME280;70045;40.200;44.582;2023-07-16T11:29:58;85978.91;;;40.64;13.30
80682;BME280;70045;40.200;44.582;2023-07-16T11:32:35;85972.16;;;40.54;12.96
80682;BME280;70045;40.200;44.582;2023-07-16T11:35:05;85965.09;;;40.98;12.26
80682;BME280;70045;40.200;44.582;2023-07-16T11:37:33;85961.72;;;41.51;12.78
80682;BME280;70045;40.200;44.582;2023-07-16T11:40:00;85960.75;;;41.58;12.10
80682;BME280;70045;40.200;44.582;2023-07-16T11:42:34;85962.41;;;41.77;12.28
80682;BME280;70045;40.200;44.582;2023-07-16T11:44:59;85964.69;;;41.03;12.56
80682;BME280;70045;40.200;44.582;2023-07-16T11:47:28;85958.66;;;40.67;12.80
80682;BME280;70045;40.200;44.582;2023-07-16T11:49:54;85957.00;;;40.37;13.38
80682;BME280;70045;40.200;44.582;2023-07-16T11:52:27;85954.47;;;41.16;12.70
80682;BME280;70045;40.200;44.582;2023-07-16T11:54:54;85944.53;;;41.60;11.99
80682;BME280;70045;40.200;44.582;2023-07-16T11:57:19;85948.19;;;42.06;12.37
80682;BME280;70045;40.200;44.582;2023-07-16T11:59:48;85940.66;;;42.19;11.31
80682;BME280;70045;40.200;44.582;2023-07-16T12:02:13;85942.25;;;42.51;11.77
80682;BME280;70045;40.200;44.582;2023-07-16T12:04:38;85943.34;;;42.46;11.04
80682;BME280;70045;40.200;44.582;2023-07-16T12:07:04;85941.72;;;43.13;11.97
80682;BME280;70045;40.200;44.582;2023-07-16T12:09:29;85944.34;;;41.70;11.84
80682;BME280;70045;40.200;44.582;2023-07-16T12:11:59;85943.63;;;40.78;12.39
80682;BME280;70045;40.200;44.582;2023-07-16T12:14:25;85940.22;;;41.29;11.96
80682;BME280;70045;40.200;44.582;2023-07-16T12:16:50;85940.28;;;41.57;12.61
80682;BME280;70045;40.200;44.582;2023-07-16T12:19:16;85939.53;;;41.03;12.47
80682;BME280;70045;40.200;44.582;2023-07-16T12:21:41;85940.84;;;40.15;13.75
80682;BME280;70045;40.200;44.582;2023-07-16T12:24:09;85933.13;;;37.85;15.38
80682;BME280;70045;40.200;44.582;2023-07-16T12:26:35;85931.38;;;36.47;16.32
80682;BME280;70045;40.200;44.582;2023-07-16T12:29:00;85926.09;;;36.10;16.81
80682;BME280;70045;40.200;44.582;2023-07-16T12:31:26;85930.50;;;35.30;18.38
80682;BME280;70045;40.200;44.582;2023-07-16T12:33:51;85929.84;;;34.05;19.39
80682;BME280;70045;40.200;44.582;2023-07-16T12:36:19;85926.91;;;33.33;21.24
80682;BME280;70045;40.200;44.582;2023-07-16T12:38:45;85932.34;;;34.73;19.09
80682;BME280;70045;40.200;44.582;2023-07-16T12:41:10;85926.66;;;34.51;20.06
80682;BME280;70045;40.200;44.582;2023-07-16T12:43:36;85920.91;;;33.85;19.82
80682;BME280;70045;40.200;44.582;2023-07-16T12:46:01;85911.44;;;33.41;21.07
80682;BME280;70045;40.200;44.582;2023-07-16T12:48:30;85911.28;;;35.16;19.32
80682;BME280;70045;40.200;44.582;2023-07-16T12:50:56;85906.63;;;36.51;18.41